Weather reports worldwide

Advertisment
Dalwhinnie, United Kingdom (99005): temperature & dewpoint: 04.07.2020 04:00:00 - 10.07.2020 04:00:00 (BST)Dalwhinnie, United Kingdom (99005): precipitation: 04.07.2020 04:00:00 - 10.07.2020 04:00:00 (BST)
Date & Time tt [°C] td [°C] rr [mm]
10.07.2020 04:00:00 - - -
10.07.2020 03:00:00 8,2 7,5 0,0
10.07.2020 02:00:00 8,4 7,7 0,2
10.07.2020 01:00:00 8,8 7,9 1,0
10.07.2020 00:00:00 8,8 7,9 0,2
09.07.2020 23:00:00 9,1 7,8 0,0
09.07.2020 22:00:00 9,0 7,8 0,0
09.07.2020 21:00:00 10,3 8,8 1,0
09.07.2020 20:00:00 11,3 7,6 0,0
09.07.2020 19:00:00 12,2 6,9 0,0
09.07.2020 18:00:00 13,4 6,7 0,0
09.07.2020 17:00:00 13,8 7,0 0,0
09.07.2020 16:00:00 15,5 5,5 0,0
09.07.2020 15:00:00 15,3 7,0 0,0
09.07.2020 14:00:00 14,9 4,9 0,0
09.07.2020 13:00:00 14,1 7,4 0,0
09.07.2020 12:00:00 13,4 8,1 0,2
09.07.2020 11:00:00 12,4 7,7 0,0
09.07.2020 10:00:00 11,9 9,3 0,0
09.07.2020 09:00:00 10,6 8,8 0,0
09.07.2020 08:00:00 9,3 8,3 0,0
09.07.2020 07:00:00 8,3 7,9 0,0
09.07.2020 06:00:00 7,5 7,1 0,0
09.07.2020 05:00:00 6,9 6,2 0,0
09.07.2020 04:00:00 7,0 6,2 0,0
09.07.2020 03:00:00 8,5 7,6 0,0
09.07.2020 02:00:00 9,3 8,1 0,0
09.07.2020 01:00:00 9,0 8,3 0,0
09.07.2020 00:00:00 9,1 8,1 0,0
08.07.2020 23:00:00 9,5 8,1 0,0
08.07.2020 22:00:00 10,4 8,4 0,0
08.07.2020 21:00:00 11,3 8,7 0,0
08.07.2020 20:00:00 11,5 9,5 0,8
08.07.2020 19:00:00 11,9 7,9 0,2
08.07.2020 18:00:00 12,5 7,3 0,0
08.07.2020 17:00:00 13,1 7,3 0,0
08.07.2020 16:00:00 12,9 6,8 0,0
08.07.2020 15:00:00 13,3 6,6 0,0
08.07.2020 14:00:00 12,8 6,7 0,0
08.07.2020 13:00:00 13,0 6,4 0,0
08.07.2020 12:00:00 12,7 6,5 0,0
08.07.2020 11:00:00 11,5 6,8 0,0
08.07.2020 10:00:00 10,7 7,4 0,0
08.07.2020 09:00:00 9,3 7,6 0,0
08.07.2020 08:00:00 7,9 6,7 0,0
08.07.2020 07:00:00 7,3 6,1 0,2
08.07.2020 06:00:00 7,0 5,9 0,0
08.07.2020 05:00:00 7,4 6,2 0,0
08.07.2020 04:00:00 7,5 6,4 0,0
08.07.2020 03:00:00 7,7 6,1 0,0
08.07.2020 02:00:00 8,1 6,8 0,0
08.07.2020 01:00:00 8,0 7,0 0,0
08.07.2020 00:00:00 8,4 7,4 0,0
07.07.2020 23:00:00 8,6 7,3 0,0
07.07.2020 22:00:00 9,2 7,7 0,0
07.07.2020 21:00:00 10,1 8,2 0,2
07.07.2020 20:00:00 10,0 8,1 1,2
07.07.2020 19:00:00 11,0 9,3 0,4
07.07.2020 18:00:00 10,7 8,6 0,4
07.07.2020 17:00:00 12,9 7,6 0,0
07.07.2020 16:00:00 12,2 6,7 0,0
07.07.2020 15:00:00 13,8 6,4 0,0
07.07.2020 14:00:00 12,7 5,6 0,2
07.07.2020 13:00:00 12,2 6,0 0,0
07.07.2020 12:00:00 10,6 5,7 0,0
07.07.2020 11:00:00 10,7 5,4 0,0
07.07.2020 10:00:00 10,4 6,1 0,0
07.07.2020 09:00:00 9,6 6,4 0,0
07.07.2020 08:00:00 8,9 5,4 0,0
07.07.2020 07:00:00 8,5 5,8 0,0
07.07.2020 06:00:00 8,0 5,8 0,0
07.07.2020 05:00:00 8,1 6,2 0,0
07.07.2020 04:00:00 8,2 6,1 0,2
07.07.2020 03:00:00 8,4 6,5 0,4
07.07.2020 02:00:00 8,4 6,8 0,2
07.07.2020 01:00:00 8,9 5,9 0,0
07.07.2020 00:00:00 9,0 5,7 0,0
06.07.2020 23:00:00 9,1 5,7 0,0
06.07.2020 22:00:00 8,8 6,0 0,0
06.07.2020 21:00:00 9,2 5,8 0,0
06.07.2020 20:00:00 9,8 5,9 0,0
06.07.2020 19:00:00 9,4 5,3 0,0
06.07.2020 18:00:00 10,9 4,6 0,0
06.07.2020 17:00:00 10,8 5,1 0,0
06.07.2020 16:00:00 11,8 4,9 0,0
06.07.2020 15:00:00 12,6 4,2 0,0
06.07.2020 14:00:00 11,9 4,6 0,0
06.07.2020 13:00:00 11,1 3,8 0,0
06.07.2020 12:00:00 10,6 5,3 0,0
06.07.2020 11:00:00 10,2 5,8 0,0
06.07.2020 10:00:00 8,9 7,6 0,8
06.07.2020 09:00:00 8,2 6,4 0,4
06.07.2020 08:00:00 8,6 5,7 0,0
06.07.2020 07:00:00 8,5 5,3 0,0
06.07.2020 06:00:00 8,6 5,4 0,0
06.07.2020 05:00:00 8,1 5,7 0,0
06.07.2020 04:00:00 8,2 6,5 0,4
06.07.2020 03:00:00 8,6 5,9 0,0
06.07.2020 02:00:00 8,6 5,8 0,0
06.07.2020 01:00:00 8,6 5,9 0,0
06.07.2020 00:00:00 8,4 5,9 0,6
05.07.2020 23:00:00 8,4 6,0 0,4
05.07.2020 22:00:00 8,5 6,5 0,4
05.07.2020 21:00:00 8,6 5,5 0,0
05.07.2020 20:00:00 8,0 5,6 2,6
05.07.2020 19:00:00 10,1 6,5 0,0
05.07.2020 18:00:00 10,2 6,2 0,0
05.07.2020 17:00:00 11,0 5,8 0,0
05.07.2020 16:00:00 10,4 6,0 0,2
05.07.2020 15:00:00 10,3 6,3 0,4
05.07.2020 14:00:00 9,9 6,5 0,0
05.07.2020 13:00:00 9,5 6,8 0,6
05.07.2020 12:00:00 9,9 8,1 0,8
05.07.2020 11:00:00 10,6 5,2 0,0
05.07.2020 10:00:00 9,7 6,3 0,0
05.07.2020 09:00:00 10,0 7,0 0,0
05.07.2020 08:00:00 9,3 6,5 0,0
05.07.2020 07:00:00 9,2 6,9 0,0
05.07.2020 06:00:00 8,7 7,8 0,0
05.07.2020 05:00:00 8,5 7,8 0,2
05.07.2020 04:00:00 9,1 8,6 1,6
05.07.2020 03:00:00 9,0 8,8 2,6
05.07.2020 02:00:00 9,0 8,8 1,2
05.07.2020 01:00:00 9,0 8,7 2,4
05.07.2020 00:00:00 9,0 8,6 2,8
04.07.2020 23:00:00 8,8 8,3 3,6
04.07.2020 22:00:00 9,2 8,3 2,2
04.07.2020 21:00:00 10,1 8,4 0,2
04.07.2020 20:00:00 11,0 8,1 0,0
04.07.2020 19:00:00 11,2 8,5 0,0
04.07.2020 18:00:00 12,3 8,3 0,0
04.07.2020 17:00:00 12,2 7,6 0,0
04.07.2020 16:00:00 12,0 8,3 0,0
04.07.2020 15:00:00 11,3 9,7 0,2
04.07.2020 14:00:00 10,9 8,6 0,0
04.07.2020 13:00:00 10,8 8,7 0,0
04.07.2020 12:00:00 10,0 8,1 0,0
04.07.2020 11:00:00 9,3 7,7 0,8
04.07.2020 10:00:00 9,7 7,4 0,0
04.07.2020 09:00:00 9,7 7,4 0,0
04.07.2020 08:00:00 9,3 7,6 0,0
04.07.2020 07:00:00 7,4 6,6 0,0
04.07.2020 06:00:00 5,7 5,1 0,0
04.07.2020 05:00:00 4,7 4,1 0,0
04.07.2020 04:00:00 5,4 4,8 0,0

tt = temperature
td = dewpoint
rr = precipitation

Next stations